createdAt,value
2017-11-03T00:00:45.750Z,0
2017-11-03T00:01:53.970Z,0
2017-11-03T00:03:02.073Z,0
2017-11-03T00:04:10.140Z,0
2017-11-03T00:05:18.226Z,0
2017-11-03T00:06:26.314Z,0
2017-11-03T00:07:34.399Z,0
2017-11-03T00:08:42.487Z,0
2017-11-03T00:09:50.575Z,0
2017-11-03T00:10:58.666Z,0
2017-11-03T00:12:06.748Z,0
2017-11-03T00:13:14.843Z,0
2017-11-03T00:14:22.921Z,0
2017-11-03T00:15:31.019Z,0
2017-11-03T00:16:39.105Z,0
2017-11-03T00:17:47.195Z,0
2017-11-03T00:18:55.280Z,0
2017-11-03T00:20:03.369Z,0
2017-11-03T00:21:11.465Z,0
2017-11-03T00:22:19.556Z,0
2017-11-03T00:23:27.644Z,0
2017-11-03T00:24:35.723Z,0
2017-11-03T00:25:43.814Z,0
2017-11-03T00:26:51.899Z,0
2017-11-03T00:27:59.991Z,0
2017-11-03T00:29:08.082Z,0
2017-11-03T00:30:16.169Z,0
2017-11-03T00:31:24.250Z,0
2017-11-03T00:32:32.336Z,0
2017-11-03T00:33:40.422Z,0
2017-11-03T00:34:48.509Z,0
2017-11-03T00:35:56.596Z,0
2017-11-03T00:37:04.689Z,0
2017-11-03T00:38:12.773Z,0
2017-11-03T00:39:20.859Z,0
2017-11-03T00:40:28.963Z,0
2017-11-03T00:41:37.038Z,0
2017-11-03T00:42:45.119Z,0
2017-11-03T00:43:53.205Z,0
2017-11-03T00:45:01.295Z,0
2017-11-03T00:46:09.379Z,0
2017-11-03T00:47:17.468Z,0
2017-11-03T00:48:25.567Z,0
2017-11-03T00:49:33.651Z,0
2017-11-03T00:50:41.737Z,0
2017-11-03T00:51:49.825Z,0
2017-11-03T00:52:57.914Z,0
2017-11-03T00:54:05.999Z,0
2017-11-03T00:55:14.088Z,0
2017-11-03T00:56:22.173Z,0
2017-11-03T00:57:30.262Z,0
2017-11-03T00:58:38.346Z,0
2017-11-03T00:59:46.446Z,0
2017-11-03T01:00:54.524Z,0
2017-11-03T01:02:02.608Z,0
2017-11-03T01:03:10.696Z,0
2017-11-03T01:04:18.783Z,0
2017-11-03T01:05:26.872Z,0
2017-11-03T01:06:34.959Z,0
2017-11-03T01:07:43.048Z,0
2017-11-03T01:08:51.132Z,0
2017-11-03T01:09:59.215Z,0
2017-11-03T01:11:07.312Z,0
2017-11-03T01:12:15.501Z,0
2017-11-03T01:13:23.492Z,0
2017-11-03T01:14:31.578Z,0
2017-11-03T01:15:39.667Z,0
2017-11-03T01:16:47.752Z,0
2017-11-03T01:17:55.848Z,0
2017-11-03T01:19:03.937Z,0
2017-11-03T01:20:12.056Z,0
2017-11-03T01:21:20.109Z,0
2017-11-03T01:22:28.211Z,0
2017-11-03T01:23:36.295Z,0
2017-11-03T01:24:44.380Z,0
2017-11-03T01:25:52.472Z,0
2017-11-03T01:27:00.556Z,0
2017-11-03T01:28:08.642Z,0
2017-11-03T01:29:16.737Z,0
2017-11-03T01:30:24.820Z,0
2017-11-03T01:31:32.913Z,0
2017-11-03T01:32:41.005Z,0
2017-11-03T01:33:49.093Z,0
2017-11-03T01:34:57.178Z,0
2017-11-03T01:36:05.265Z,0
2017-11-03T01:37:13.351Z,0
2017-11-03T01:38:21.440Z,0
2017-11-03T01:39:29.523Z,0
2017-11-03T01:40:37.620Z,0
2017-11-03T01:41:45.708Z,0
2017-11-03T01:42:53.798Z,0
2017-11-03T01:44:01.884Z,0
2017-11-03T01:45:09.968Z,0
2017-11-03T01:46:18.258Z,0
2017-11-03T01:47:26.141Z,0
2017-11-03T01:48:34.806Z,0
2017-11-03T01:49:42.895Z,0
2017-11-03T01:50:50.983Z,0
2017-11-03T01:51:59.073Z,0
2017-11-03T01:53:07.155Z,0
2017-11-03T01:54:15.239Z,0
2017-11-03T01:55:23.329Z,0
2017-11-03T01:56:31.416Z,0
2017-11-03T01:57:44.912Z,0
2017-11-03T01:58:47.586Z,0
2017-11-03T01:59:55.672Z,0
2017-11-03T02:01:03.779Z,0
2017-11-03T02:02:11.849Z,0
2017-11-03T02:03:19.936Z,0
2017-11-03T02:04:28.022Z,0
2017-11-03T02:05:36.107Z,0
2017-11-03T02:06:44.193Z,0
2017-11-03T02:07:52.282Z,0
2017-11-03T02:09:00.369Z,0
2017-11-03T02:10:08.460Z,0
2017-11-03T02:11:16.555Z,0
2017-11-03T02:12:24.636Z,0
2017-11-03T02:13:32.721Z,0
2017-11-03T02:14:40.809Z,0
2017-11-03T02:15:48.900Z,0
2017-11-03T02:16:56.986Z,0
2017-11-03T02:18:05.072Z,0
2017-11-03T02:19:13.158Z,0
2017-11-03T02:20:21.249Z,0
2017-11-03T02:21:29.351Z,0
2017-11-03T02:22:37.417Z,0
2017-11-03T02:23:45.505Z,0
2017-11-03T02:24:53.591Z,0
2017-11-03T02:26:01.678Z,0
2017-11-03T02:27:09.763Z,0
2017-11-03T02:28:17.929Z,0
2017-11-03T02:29:25.934Z,0
2017-11-03T02:30:34.035Z,0
2017-11-03T02:31:42.115Z,0
2017-11-03T02:32:50.228Z,0
2017-11-03T02:33:58.287Z,0
2017-11-03T02:35:06.389Z,0
2017-11-03T02:36:14.469Z,0
2017-11-03T02:37:22.550Z,0
2017-11-03T02:38:30.637Z,0
2017-11-03T02:39:38.735Z,0
2017-11-03T02:40:46.812Z,0
2017-11-03T02:41:54.900Z,0
2017-11-03T02:43:02.987Z,0
2017-11-03T02:44:11.079Z,0
2017-11-03T02:45:19.167Z,0
2017-11-03T02:46:27.246Z,0
2017-11-03T02:47:35.334Z,0
2017-11-03T02:48:43.420Z,0
2017-11-03T02:49:51.507Z,0
2017-11-03T02:50:59.592Z,0
2017-11-03T02:52:07.679Z,0
2017-11-03T02:53:15.774Z,0
2017-11-03T02:54:23.853Z,0
2017-11-03T02:55:31.950Z,0
2017-11-03T02:56:40.032Z,0
2017-11-03T02:57:48.113Z,0
2017-11-03T02:58:56.199Z,0
2017-11-03T03:00:04.287Z,0
2017-11-03T03:01:12.403Z,0
2017-11-03T03:02:20.458Z,0
2017-11-03T03:03:28.544Z,0
2017-11-03T03:04:36.631Z,0
2017-11-03T03:05:44.721Z,0
2017-11-03T03:06:52.808Z,0
2017-11-03T03:08:00.898Z,0
2017-11-03T03:09:08.982Z,0
2017-11-03T03:10:17.072Z,0
2017-11-03T03:11:25.154Z,0
2017-11-03T03:12:33.243Z,0
2017-11-03T03:13:41.329Z,0
2017-11-03T03:14:49.433Z,0
2017-11-03T03:15:57.502Z,0
2017-11-03T03:17:05.589Z,0
2017-11-03T03:18:13.676Z,0
2017-11-03T03:19:21.830Z,0
2017-11-03T03:20:29.929Z,0
2017-11-03T03:21:38.004Z,0
2017-11-03T03:22:46.106Z,0
2017-11-03T03:23:54.182Z,0
2017-11-03T03:25:02.263Z,0
2017-11-03T03:26:10.354Z,0
2017-11-03T03:27:18.441Z,0
2017-11-03T03:28:26.525Z,0
2017-11-03T03:29:34.613Z,0
2017-11-03T03:30:42.708Z,0
2017-11-03T03:31:50.787Z,0
2017-11-03T03:32:58.881Z,0
2017-11-03T03:34:06.964Z,0
2017-11-03T03:35:15.049Z,0
2017-11-03T03:36:23.131Z,0
2017-11-03T03:37:31.220Z,0
2017-11-03T03:38:39.304Z,0
2017-11-03T03:39:47.400Z,0
2017-11-03T03:40:55.487Z,0
2017-11-03T03:42:03.581Z,0
2017-11-03T03:43:11.669Z,0
2017-11-03T03:44:19.760Z,0
2017-11-03T03:45:27.844Z,0
2017-11-03T03:46:35.932Z,0
2017-11-03T03:47:44.025Z,0
2017-11-03T03:48:52.834Z,0
2017-11-03T03:50:00.998Z,0
2017-11-03T03:51:09.013Z,0
2017-11-03T03:52:17.112Z,0
2017-11-03T03:53:25.192Z,0
2017-11-03T03:54:33.280Z,0
2017-11-03T03:55:41.366Z,0
2017-11-03T03:56:49.453Z,0
2017-11-03T03:57:57.540Z,0
2017-11-03T03:59:05.627Z,0
2017-11-03T04:00:13.714Z,0
2017-11-03T04:01:21.802Z,0
2017-11-03T04:02:29.888Z,0
2017-11-03T04:03:37.974Z,0
2017-11-03T04:04:46.066Z,0
2017-11-03T04:05:54.148Z,0
2017-11-03T04:07:02.236Z,0
2017-11-03T04:08:10.327Z,0
2017-11-03T04:09:18.420Z,0
2017-11-03T04:10:26.504Z,0
2017-11-03T04:11:34.589Z,0
2017-11-03T04:12:42.675Z,0
2017-11-03T04:13:50.765Z,0
2017-11-03T04:14:58.856Z,0
2017-11-03T04:16:06.939Z,0
2017-11-03T04:17:15.031Z,0
2017-11-03T04:18:23.131Z,0
2017-11-03T04:19:31.198Z,0
2017-11-03T04:20:39.284Z,0
2017-11-03T04:21:47.368Z,0
2017-11-03T04:22:55.458Z,0
2017-11-03T04:24:03.555Z,0
2017-11-03T04:25:11.720Z,0
2017-11-03T04:26:19.725Z,0
2017-11-03T04:27:27.813Z,0
2017-11-03T04:28:35.904Z,0
2017-11-03T04:29:43.995Z,0
2017-11-03T04:30:52.073Z,0
2017-11-03T04:32:00.161Z,0
2017-11-03T04:33:08.471Z,0
2017-11-03T04:34:16.342Z,0
2017-11-03T04:35:24.430Z,0
2017-11-03T04:36:32.515Z,0
2017-11-03T04:37:40.609Z,0
2017-11-03T04:38:48.689Z,0
2017-11-03T04:39:56.785Z,0
2017-11-03T04:41:04.868Z,0
2017-11-03T04:42:12.952Z,0
2017-11-03T04:43:21.070Z,0
2017-11-03T04:44:29.126Z,0
2017-11-03T04:45:37.214Z,0
2017-11-03T04:46:45.304Z,0
2017-11-03T04:47:53.387Z,0
2017-11-03T04:49:01.473Z,0
2017-11-03T04:50:09.560Z,0
2017-11-03T04:51:17.648Z,0
2017-11-03T04:52:25.736Z,0
2017-11-03T04:53:33.823Z,0
2017-11-03T04:54:41.925Z,0
2017-11-03T04:55:49.998Z,0
2017-11-03T04:56:58.079Z,0
2017-11-03T04:58:06.167Z,0
2017-11-03T04:59:14.260Z,0
2017-11-03T05:00:22.344Z,0
2017-11-03T05:01:30.427Z,0
2017-11-03T05:02:38.513Z,0
2017-11-03T05:03:46.601Z,0
2017-11-03T05:04:54.688Z,0
2017-11-03T05:06:02.773Z,0
2017-11-03T05:07:10.858Z,0
2017-11-03T05:08:18.948Z,0
2017-11-03T05:09:27.031Z,0
2017-11-03T05:10:35.123Z,0
2017-11-03T05:11:43.205Z,0
2017-11-03T05:12:51.294Z,0
2017-11-03T05:13:59.381Z,0
2017-11-03T05:15:07.466Z,0
2017-11-03T05:16:15.569Z,0
2017-11-03T05:17:24.086Z,0
2017-11-03T05:18:31.729Z,0
2017-11-03T05:19:39.816Z,0
2017-11-03T05:20:47.903Z,0
2017-11-03T05:21:55.999Z,0
2017-11-03T05:23:04.099Z,0
2017-11-03T05:24:12.174Z,0
2017-11-03T05:25:20.259Z,0
2017-11-03T05:26:28.366Z,0
2017-11-03T05:27:36.760Z,0
2017-11-03T05:28:44.527Z,0
2017-11-03T05:29:52.612Z,0
2017-11-03T05:31:00.696Z,0
2017-11-03T05:32:08.782Z,0
2017-11-03T05:33:16.866Z,0
2017-11-03T05:34:24.960Z,0
2017-11-03T05:35:33.041Z,0
2017-11-03T05:36:42.426Z,0
2017-11-03T05:37:50.514Z,0
2017-11-03T05:38:58.601Z,0
2017-11-03T05:40:06.701Z,0
2017-11-03T05:41:14.778Z,0
2017-11-03T05:42:23.252Z,0
2017-11-03T05:43:30.948Z,0
2017-11-03T05:44:39.049Z,0
2017-11-03T05:45:47.130Z,0
2017-11-03T05:46:55.227Z,0
2017-11-03T05:48:03.517Z,0
2017-11-03T05:49:12.858Z,0
2017-11-03T05:50:21.036Z,0
2017-11-03T05:51:29.040Z,0
2017-11-03T05:52:37.147Z,0
2017-11-03T05:53:45.221Z,0
2017-11-03T05:54:53.308Z,0
2017-11-03T05:56:01.396Z,0
2017-11-03T05:57:09.480Z,0
2017-11-03T05:58:17.565Z,0
2017-11-03T05:59:25.661Z,0
2017-11-03T06:00:33.747Z,0
2017-11-03T06:01:41.855Z,0
2017-11-03T06:02:49.923Z,0
2017-11-03T06:03:58.007Z,0
2017-11-03T06:05:06.091Z,0
2017-11-03T06:06:14.179Z,0
2017-11-03T06:07:22.266Z,0
2017-11-03T06:08:30.352Z,0
2017-11-03T06:09:38.459Z,0
2017-11-03T06:10:46.535Z,0
2017-11-03T06:11:54.621Z,0
2017-11-03T06:13:02.707Z,0
2017-11-03T06:14:10.793Z,0
2017-11-03T06:15:18.955Z,0
2017-11-03T06:16:27.045Z,0
2017-11-03T06:17:35.130Z,0
2017-11-03T06:18:43.215Z,4
2017-11-03T06:19:51.297Z,4
2017-11-03T06:20:59.410Z,4
2017-11-03T06:22:07.474Z,0
2017-11-03T06:23:15.559Z,0
2017-11-03T06:24:23.647Z,0
2017-11-03T06:25:31.733Z,0
2017-11-03T06:26:39.818Z,4
2017-11-03T06:27:47.911Z,4
2017-11-03T06:28:55.994Z,4
2017-11-03T06:30:04.078Z,4
2017-11-03T06:31:12.164Z,0
2017-11-03T06:32:20.257Z,0
2017-11-03T06:33:28.336Z,0
2017-11-03T06:34:36.426Z,0
2017-11-03T06:35:44.509Z,4
2017-11-03T06:36:52.596Z,4
2017-11-03T06:38:00.682Z,0
2017-11-03T06:39:08.768Z,4
2017-11-03T06:40:16.868Z,4
2017-11-03T06:41:24.957Z,4
2017-11-03T06:42:33.046Z,4
2017-11-03T06:43:41.520Z,4
2017-11-03T06:44:49.218Z,4
2017-11-03T06:45:57.307Z,4
2017-11-03T06:47:05.390Z,4
2017-11-03T06:48:13.482Z,4
2017-11-03T06:49:21.566Z,4
2017-11-03T06:50:29.656Z,4
2017-11-03T06:51:37.744Z,4
2017-11-03T06:52:45.829Z,4
2017-11-03T06:53:53.936Z,4
2017-11-03T06:55:02.004Z,4
2017-11-03T06:56:10.127Z,4
2017-11-03T06:57:18.184Z,8
2017-11-03T06:58:26.268Z,4
2017-11-03T06:59:34.351Z,4
2017-11-03T07:00:42.435Z,8
2017-11-03T07:01:50.520Z,4
2017-11-03T07:02:58.606Z,4
2017-11-03T07:04:06.698Z,8
2017-11-03T07:05:14.781Z,8
2017-11-03T07:06:22.869Z,8
2017-11-03T07:07:30.957Z,8
2017-11-03T07:08:39.045Z,8
2017-11-03T07:09:47.134Z,12
2017-11-03T07:10:55.222Z,12
2017-11-03T07:12:03.300Z,8
2017-11-03T07:13:11.386Z,8
2017-11-03T07:14:19.470Z,8
2017-11-03T07:15:27.561Z,12
2017-11-03T07:16:35.646Z,8
2017-11-03T07:17:43.732Z,8
2017-11-03T07:18:51.817Z,12
2017-11-03T07:19:59.907Z,12
2017-11-03T07:21:07.991Z,12
2017-11-03T07:22:16.077Z,12
2017-11-03T07:23:24.167Z,12
2017-11-03T07:24:32.251Z,16
2017-11-03T07:25:40.358Z,12
2017-11-03T07:26:48.427Z,12
2017-11-03T07:27:56.583Z,16
2017-11-03T07:29:04.598Z,16
2017-11-03T07:30:12.684Z,16
2017-11-03T07:31:20.770Z,16
2017-11-03T07:32:28.857Z,12
2017-11-03T07:33:36.949Z,16
2017-11-03T07:34:45.030Z,12
2017-11-03T07:35:53.117Z,16
2017-11-03T07:37:01.238Z,12
2017-11-03T07:38:09.290Z,12
2017-11-03T07:39:17.378Z,16
2017-11-03T07:40:25.482Z,16
2017-11-03T07:41:33.550Z,16
2017-11-03T07:42:41.638Z,16
2017-11-03T07:43:49.726Z,16
2017-11-03T07:44:57.833Z,16
2017-11-03T07:46:05.896Z,16
2017-11-03T07:47:13.985Z,24
2017-11-03T07:48:22.073Z,24
2017-11-03T07:49:30.155Z,24
2017-11-03T07:50:38.244Z,24
2017-11-03T07:51:46.330Z,16
2017-11-03T07:52:54.417Z,12
2017-11-03T07:54:02.503Z,20
2017-11-03T07:55:10.590Z,12
2017-11-03T07:56:18.682Z,20
2017-11-03T07:57:26.765Z,16
2017-11-03T07:58:34.862Z,20
2017-11-03T07:59:42.941Z,24
2017-11-03T08:00:51.029Z,24
2017-11-03T08:01:59.124Z,24
2017-11-03T08:03:07.205Z,24
2017-11-03T08:04:15.294Z,24
2017-11-03T08:05:23.383Z,28
2017-11-03T08:06:31.465Z,24
2017-11-03T08:07:39.557Z,24
2017-11-03T08:08:47.636Z,24
2017-11-03T08:09:55.726Z,28
2017-11-03T08:11:03.812Z,28
2017-11-03T08:12:11.902Z,28
2017-11-03T08:13:19.986Z,28
2017-11-03T08:14:28.078Z,28
2017-11-03T08:15:36.159Z,28
2017-11-03T08:16:44.247Z,20
2017-11-03T08:17:52.334Z,28
2017-11-03T08:19:00.520Z,28
2017-11-03T08:20:08.605Z,32
2017-11-03T08:21:16.695Z,36
2017-11-03T08:22:24.779Z,36
2017-11-03T08:23:32.866Z,36
2017-11-03T08:24:41.218Z,36
2017-11-03T08:25:49.037Z,32
2017-11-03T08:26:57.126Z,28
2017-11-03T08:28:05.212Z,32
2017-11-03T08:29:13.304Z,36
2017-11-03T08:30:21.386Z,36
2017-11-03T08:31:29.473Z,36
2017-11-03T08:32:37.561Z,32
2017-11-03T08:33:45.645Z,36
2017-11-03T08:34:53.735Z,20
2017-11-03T08:36:01.819Z,16
2017-11-03T08:37:09.908Z,20
2017-11-03T08:38:17.991Z,20
2017-11-03T08:39:26.080Z,20
2017-11-03T08:40:34.171Z,20
2017-11-03T08:41:42.256Z,20
2017-11-03T08:42:50.338Z,20
2017-11-03T08:43:58.425Z,20
2017-11-03T08:45:06.515Z,20
2017-11-03T08:46:14.597Z,20
2017-11-03T08:47:22.683Z,20
2017-11-03T08:48:30.770Z,20
2017-11-03T08:49:38.861Z,20
2017-11-03T08:50:46.945Z,20
2017-11-03T08:51:55.038Z,20
2017-11-03T08:53:03.126Z,24
2017-11-03T08:54:11.206Z,24
2017-11-03T08:55:19.292Z,24
2017-11-03T08:56:27.381Z,24
2017-11-03T08:57:35.466Z,24
2017-11-03T08:58:43.552Z,24
2017-11-03T08:59:51.640Z,24
2017-11-03T09:00:59.726Z,20
2017-11-03T09:02:07.815Z,24
2017-11-03T09:03:16.111Z,24
2017-11-03T09:04:23.989Z,24
2017-11-03T09:05:32.073Z,24
2017-11-03T09:06:40.160Z,28
2017-11-03T09:07:48.246Z,24
2017-11-03T09:08:56.333Z,28
2017-11-03T09:10:04.420Z,28
2017-11-03T09:11:12.507Z,24
2017-11-03T09:12:20.597Z,24
2017-11-03T09:13:28.682Z,32
2017-11-03T09:14:36.764Z,28
2017-11-03T09:15:44.852Z,28
2017-11-03T09:16:52.958Z,28
2017-11-03T09:18:01.027Z,36
2017-11-03T09:19:09.114Z,32
2017-11-03T09:20:17.203Z,36
2017-11-03T09:21:25.289Z,32
2017-11-03T09:22:33.386Z,36
2017-11-03T09:23:41.463Z,32
2017-11-03T09:24:49.546Z,32
2017-11-03T09:25:57.633Z,32
2017-11-03T09:27:05.721Z,32
2017-11-03T09:28:13.805Z,32
2017-11-03T09:29:21.903Z,32
2017-11-03T09:30:29.988Z,28
2017-11-03T09:31:38.073Z,24
2017-11-03T09:32:46.160Z,28
2017-11-03T09:33:54.269Z,28
2017-11-03T09:35:02.361Z,24
2017-11-03T09:36:10.456Z,24
2017-11-03T09:37:18.534Z,28
2017-11-03T09:38:26.622Z,24
2017-11-03T09:39:34.707Z,28
2017-11-03T09:40:42.804Z,28
2017-11-03T09:41:50.892Z,28
2017-11-03T09:42:58.983Z,28
2017-11-03T09:44:07.071Z,28
2017-11-03T09:45:15.179Z,28
2017-11-03T09:46:23.254Z,28
2017-11-03T09:47:31.335Z,32
2017-11-03T09:48:39.427Z,28
2017-11-03T09:49:47.508Z,28
2017-11-03T09:50:55.593Z,28
2017-11-03T09:52:03.680Z,28
2017-11-03T09:53:11.774Z,28
2017-11-03T09:54:19.883Z,32
2017-11-03T09:55:27.941Z,28
2017-11-03T09:56:36.031Z,32
2017-11-03T09:57:44.119Z,28
2017-11-03T09:58:52.203Z,28
2017-11-03T10:00:00.292Z,28
2017-11-03T10:01:08.375Z,28
2017-11-03T10:02:16.463Z,28
2017-11-03T10:03:24.550Z,28
2017-11-03T10:04:32.637Z,28
2017-11-03T10:05:40.725Z,28
2017-11-03T10:06:48.811Z,28
2017-11-03T10:07:56.906Z,28
2017-11-03T10:09:04.995Z,28
2017-11-03T10:10:13.072Z,28
2017-11-03T10:11:21.161Z,28
2017-11-03T10:12:29.244Z,28
2017-11-03T10:13:37.351Z,28
2017-11-03T10:14:45.417Z,20
2017-11-03T10:15:53.511Z,20
2017-11-03T10:17:01.598Z,20
2017-11-03T10:18:09.682Z,20
2017-11-03T10:19:17.768Z,20
2017-11-03T10:20:25.858Z,24
2017-11-03T10:21:33.947Z,24
2017-11-03T10:22:42.029Z,28
2017-11-03T10:23:50.116Z,28
2017-11-03T10:24:58.204Z,28
2017-11-03T10:26:06.292Z,28
2017-11-03T10:27:14.394Z,32
2017-11-03T10:28:22.474Z,32
2017-11-03T10:29:30.553Z,28
2017-11-03T10:30:38.639Z,28
2017-11-03T10:31:46.725Z,28
2017-11-03T10:32:54.810Z,28
2017-11-03T10:34:02.899Z,28
2017-11-03T10:35:10.991Z,28
2017-11-03T10:36:19.078Z,28
2017-11-03T10:37:27.159Z,28
2017-11-03T10:38:35.260Z,24
2017-11-03T10:39:43.336Z,28
2017-11-03T10:40:51.417Z,28
2017-11-03T10:41:59.502Z,28
2017-11-03T10:43:07.592Z,32
2017-11-03T10:44:15.684Z,48
2017-11-03T10:45:23.767Z,36
2017-11-03T10:46:31.891Z,36
2017-11-03T10:47:39.941Z,40
2017-11-03T10:48:48.024Z,40
2017-11-03T10:49:56.123Z,40
2017-11-03T10:51:04.254Z,48
2017-11-03T10:52:12.303Z,40
2017-11-03T10:53:20.390Z,36
2017-11-03T10:54:28.474Z,36
2017-11-03T10:55:36.559Z,36
2017-11-03T10:56:44.646Z,48
2017-11-03T10:57:52.734Z,48
2017-11-03T10:59:00.820Z,44
2017-11-03T11:00:08.915Z,44
2017-11-03T11:01:17.006Z,40
2017-11-03T11:02:25.087Z,40
2017-11-03T11:03:33.174Z,40
2017-11-03T11:04:41.263Z,32
2017-11-03T11:05:49.487Z,28
2017-11-03T11:06:57.576Z,36
2017-11-03T11:08:05.663Z,36
2017-11-03T11:09:13.749Z,36
2017-11-03T11:10:21.836Z,36
2017-11-03T11:11:29.925Z,36
2017-11-03T11:12:38.027Z,36
2017-11-03T11:13:46.098Z,36
2017-11-03T11:14:54.181Z,36
2017-11-03T11:16:02.269Z,36
2017-11-03T11:17:10.354Z,32
2017-11-03T11:18:18.584Z,24
2017-11-03T11:19:26.675Z,28
2017-11-03T11:20:34.758Z,40
2017-11-03T11:21:42.846Z,32
2017-11-03T11:22:50.932Z,36
2017-11-03T11:23:59.017Z,40
2017-11-03T11:25:07.104Z,36
2017-11-03T11:26:15.191Z,36
2017-11-03T11:27:23.282Z,36
2017-11-03T11:28:31.365Z,40
2017-11-03T11:29:39.454Z,36
2017-11-03T11:30:47.538Z,32
2017-11-03T11:31:55.623Z,36
2017-11-03T11:33:03.710Z,32
2017-11-03T11:34:11.799Z,32
2017-11-03T11:35:19.911Z,32
2017-11-03T11:36:27.974Z,28
2017-11-03T11:37:36.054Z,32
2017-11-03T11:38:44.148Z,32
2017-11-03T11:39:52.282Z,28
2017-11-03T11:41:00.368Z,32
2017-11-03T11:42:08.464Z,28
2017-11-03T11:43:16.544Z,32
2017-11-03T11:44:24.632Z,32
2017-11-03T11:45:32.714Z,32
2017-11-03T11:46:40.827Z,28
2017-11-03T11:47:48.893Z,32
2017-11-03T11:48:56.985Z,32
2017-11-03T11:50:05.072Z,32
2017-11-03T11:51:13.160Z,32
2017-11-03T11:52:21.239Z,32
2017-11-03T11:53:29.330Z,32
2017-11-03T11:54:37.411Z,32
2017-11-03T11:55:45.511Z,28
2017-11-03T11:56:53.600Z,32
2017-11-03T11:58:01.685Z,28
2017-11-03T11:59:09.770Z,24
2017-11-03T12:00:17.855Z,24
2017-11-03T12:01:25.945Z,28
2017-11-03T12:02:34.041Z,24
2017-11-03T12:03:42.116Z,28
2017-11-03T12:04:50.208Z,28
2017-11-03T12:05:58.305Z,24
2017-11-03T12:07:06.395Z,28
2017-11-03T12:08:14.473Z,28
2017-11-03T12:09:22.563Z,28
2017-11-03T12:10:30.649Z,36
2017-11-03T12:11:38.735Z,32
2017-11-03T12:12:46.822Z,32
2017-11-03T12:13:54.909Z,40
2017-11-03T12:15:02.994Z,32
2017-11-03T12:16:11.079Z,32
2017-11-03T12:17:19.169Z,32
2017-11-03T12:18:27.264Z,36
2017-11-03T12:19:35.351Z,32
2017-11-03T12:20:43.438Z,44
2017-11-03T12:21:51.523Z,32
2017-11-03T12:22:59.609Z,28
2017-11-03T12:24:07.695Z,28
2017-11-03T12:25:15.781Z,28
2017-11-03T12:26:23.868Z,28
2017-11-03T12:27:31.957Z,28
2017-11-03T12:28:40.063Z,24
2017-11-03T12:29:48.130Z,24
2017-11-03T12:30:56.215Z,24
2017-11-03T12:32:04.300Z,24
2017-11-03T12:33:12.390Z,28
2017-11-03T12:34:20.475Z,36
2017-11-03T12:35:28.560Z,28
2017-11-03T12:36:36.653Z,28
2017-11-03T12:37:44.734Z,28
2017-11-03T12:38:52.819Z,28
2017-11-03T12:40:00.910Z,24
2017-11-03T12:41:09.008Z,36
2017-11-03T12:42:17.092Z,28
2017-11-03T12:43:25.208Z,28
2017-11-03T12:44:33.282Z,28
2017-11-03T12:45:41.364Z,24
2017-11-03T12:46:49.454Z,28
2017-11-03T12:47:57.541Z,24
2017-11-03T12:49:05.623Z,28
2017-11-03T12:50:13.707Z,24
2017-11-03T12:51:21.795Z,24
2017-11-03T12:52:29.895Z,24
2017-11-03T12:53:37.966Z,24
2017-11-03T12:54:46.073Z,24
2017-11-03T12:55:54.140Z,24
2017-11-03T12:57:02.233Z,24
2017-11-03T12:58:10.327Z,24
2017-11-03T12:59:18.609Z,24
2017-11-03T13:00:26.696Z,24
2017-11-03T13:01:34.784Z,24
2017-11-03T13:02:42.871Z,20
2017-11-03T13:03:50.960Z,24
2017-11-03T13:04:59.049Z,24
2017-11-03T13:06:07.155Z,24
2017-11-03T13:07:15.218Z,20
2017-11-03T13:08:23.308Z,24
2017-11-03T13:09:31.408Z,24
2017-11-03T13:10:39.479Z,20
2017-11-03T13:11:47.564Z,20
2017-11-03T13:12:55.649Z,20
2017-11-03T13:14:03.735Z,20
2017-11-03T13:15:11.821Z,20
2017-11-03T13:16:19.909Z,24
2017-11-03T13:17:27.995Z,20
2017-11-03T13:18:36.085Z,20
2017-11-03T13:19:44.165Z,32
2017-11-03T13:20:52.428Z,32
2017-11-03T13:22:00.342Z,24
2017-11-03T13:23:08.429Z,28
2017-11-03T13:24:16.513Z,16
2017-11-03T13:25:24.602Z,16
2017-11-03T13:26:32.687Z,16
2017-11-03T13:27:40.772Z,16
2017-11-03T13:28:48.868Z,16
2017-11-03T13:29:56.947Z,16
2017-11-03T13:31:05.048Z,16
2017-11-03T13:32:13.132Z,16
2017-11-03T13:33:21.205Z,16
2017-11-03T13:34:29.294Z,12
2017-11-03T13:35:37.378Z,12
2017-11-03T13:36:45.465Z,16
2017-11-03T13:37:53.552Z,12
2017-11-03T13:39:01.637Z,16
2017-11-03T13:40:09.729Z,16
2017-11-03T13:41:17.809Z,16
2017-11-03T13:42:25.912Z,16
2017-11-03T13:43:34.002Z,20
2017-11-03T13:44:42.069Z,20
2017-11-03T13:45:50.168Z,20
2017-11-03T13:46:58.254Z,16
2017-11-03T13:48:06.342Z,16
2017-11-03T13:49:14.438Z,20
2017-11-03T13:50:22.524Z,16
2017-11-03T13:51:30.609Z,16
2017-11-03T13:52:38.693Z,16
2017-11-03T13:53:46.778Z,20
2017-11-03T13:54:54.868Z,16
2017-11-03T13:56:02.956Z,16
2017-11-03T13:57:11.038Z,20
2017-11-03T13:58:19.207Z,16
2017-11-03T13:59:27.229Z,12
2017-11-03T14:00:35.297Z,16
2017-11-03T14:01:43.381Z,12
2017-11-03T14:02:51.473Z,12
2017-11-03T14:03:59.554Z,12
2017-11-03T14:05:07.642Z,12
2017-11-03T14:06:15.727Z,12
2017-11-03T14:07:23.813Z,12
2017-11-03T14:08:31.904Z,12
2017-11-03T14:09:39.992Z,12
2017-11-03T14:10:48.080Z,12
2017-11-03T14:11:56.167Z,12
2017-11-03T14:13:04.256Z,12
2017-11-03T14:14:12.344Z,12
2017-11-03T14:15:20.426Z,12
2017-11-03T14:16:28.511Z,12
2017-11-03T14:17:36.600Z,12
2017-11-03T14:18:44.701Z,12
2017-11-03T14:19:52.770Z,12
2017-11-03T14:21:00.856Z,16
2017-11-03T14:22:08.957Z,12
2017-11-03T14:23:17.025Z,12
2017-11-03T14:24:25.112Z,12
2017-11-03T14:25:33.216Z,12
2017-11-03T14:26:41.284Z,12
2017-11-03T14:27:49.370Z,12
2017-11-03T14:28:57.462Z,8
2017-11-03T14:30:05.541Z,12
2017-11-03T14:31:13.626Z,8
2017-11-03T14:32:21.720Z,12
2017-11-03T14:33:29.802Z,12
2017-11-03T14:34:37.890Z,8
2017-11-03T14:35:46.001Z,8
2017-11-03T14:36:54.070Z,8
2017-11-03T14:38:02.152Z,8
2017-11-03T14:39:10.234Z,12
2017-11-03T14:40:18.321Z,8
2017-11-03T14:41:26.417Z,8
2017-11-03T14:42:34.510Z,12
2017-11-03T14:43:42.596Z,8
2017-11-03T14:44:50.679Z,8
2017-11-03T14:45:58.763Z,8
2017-11-03T14:47:06.851Z,8
2017-11-03T14:48:14.938Z,8
2017-11-03T14:49:23.030Z,8
2017-11-03T14:50:31.108Z,8
2017-11-03T14:51:39.203Z,8
2017-11-03T14:52:47.282Z,8
2017-11-03T14:53:55.368Z,8
2017-11-03T14:55:03.454Z,8
2017-11-03T14:56:11.545Z,8
2017-11-03T14:57:19.632Z,8
2017-11-03T14:58:27.719Z,8
2017-11-03T14:59:35.807Z,8
2017-11-03T15:00:43.892Z,8
2017-11-03T15:01:51.978Z,8
2017-11-03T15:03:00.070Z,8
2017-11-03T15:04:08.442Z,8
2017-11-03T15:05:16.232Z,8
2017-11-03T15:06:24.320Z,8
2017-11-03T15:07:32.410Z,8
2017-11-03T15:08:40.489Z,4
2017-11-03T15:09:48.577Z,4
2017-11-03T15:10:56.664Z,4
2017-11-03T15:12:04.758Z,8
2017-11-03T15:13:12.843Z,8
2017-11-03T15:14:20.919Z,8
2017-11-03T15:15:29.005Z,8
2017-11-03T15:16:37.113Z,8
2017-11-03T15:17:45.185Z,8
2017-11-03T15:18:53.280Z,8
2017-11-03T15:20:01.656Z,4
2017-11-03T15:21:09.743Z,4
2017-11-03T15:22:17.827Z,4
2017-11-03T15:23:25.918Z,4
2017-11-03T15:24:34.003Z,4
2017-11-03T15:25:42.086Z,4
2017-11-03T15:26:50.171Z,4
2017-11-03T15:27:58.257Z,4
2017-11-03T15:29:06.349Z,4
2017-11-03T15:30:14.428Z,4
2017-11-03T15:31:22.546Z,4
2017-11-03T15:32:30.628Z,4
2017-11-03T15:33:38.712Z,4
2017-11-03T15:34:46.801Z,4
2017-11-03T15:35:54.905Z,4
2017-11-03T15:37:02.988Z,4
2017-11-03T15:38:11.067Z,4
2017-11-03T15:39:19.158Z,4
2017-11-03T15:40:27.263Z,4
2017-11-03T15:41:35.328Z,4
2017-11-03T15:42:43.409Z,4
2017-11-03T15:43:51.502Z,4
2017-11-03T15:44:59.579Z,4
2017-11-03T15:46:07.666Z,4
2017-11-03T15:47:15.752Z,4
2017-11-03T15:48:23.846Z,4
2017-11-03T15:49:31.930Z,4
2017-11-03T15:50:40.010Z,0
2017-11-03T15:51:48.115Z,0
2017-11-03T15:52:56.189Z,0
2017-11-03T15:54:04.518Z,0
2017-11-03T15:55:12.604Z,4
2017-11-03T15:56:20.689Z,4
2017-11-03T15:57:28.778Z,4
2017-11-03T15:58:36.860Z,4
2017-11-03T15:59:44.952Z,0
2017-11-03T16:00:53.032Z,0
2017-11-03T16:02:01.129Z,0
2017-11-03T16:03:09.226Z,0
2017-11-03T16:04:17.296Z,0
2017-11-03T16:05:25.388Z,0
2017-11-03T16:06:33.645Z,0
2017-11-03T16:07:41.734Z,0
2017-11-03T16:08:49.818Z,0
2017-11-03T16:09:57.908Z,0
2017-11-03T16:11:05.988Z,0
2017-11-03T16:12:14.073Z,0
2017-11-03T16:13:22.162Z,0
2017-11-03T16:14:30.249Z,0
2017-11-03T16:15:38.341Z,0
2017-11-03T16:16:46.428Z,0
2017-11-03T16:17:54.512Z,0
2017-11-03T16:19:02.600Z,0
2017-11-03T16:20:10.692Z,0
2017-11-03T16:21:18.770Z,0
2017-11-03T16:22:26.854Z,0
2017-11-03T16:23:34.943Z,0
2017-11-03T16:24:43.034Z,0
2017-11-03T16:25:51.113Z,0
2017-11-03T16:26:59.198Z,0
2017-11-03T16:28:07.283Z,0
2017-11-03T16:29:15.368Z,0
2017-11-03T16:30:23.455Z,0